sensor_id;sensor_type;location;lat;lon;timestamp;pressure;altitude;pressure_sealevel;temperature;humidity
47761;BME280;33524;55.434;38.520;2023-02-12T00:01:38;98852.31;;;-1.65;91.45
47761;BME280;33524;55.434;38.520;2023-02-12T00:04:06;98848.13;;;-1.67;92.31
47761;BME280;33524;55.434;38.520;2023-02-12T00:06:34;98849.56;;;-1.62;92.24
47761;BME280;33524;55.434;38.520;2023-02-12T00:09:02;98840.59;;;-1.53;91.06
47761;BME280;33524;55.434;38.520;2023-02-12T00:11:30;98838.84;;;-1.35;89.47
47761;BME280;33524;55.434;38.520;2023-02-12T00:14:01;98845.91;;;-1.21;87.93
47761;BME280;33524;55.434;38.520;2023-02-12T00:16:31;98842.87;;;-1.29;89.08
47761;BME280;33524;55.434;38.520;2023-02-12T00:18:59;98833.25;;;-1.26;88.56
47761;BME280;33524;55.434;38.520;2023-02-12T00:21:27;98844.69;;;-1.31;88.81
47761;BME280;33524;55.434;38.520;2023-02-12T00:23:56;98833.84;;;-1.38;90.10
47761;BME280;33524;55.434;38.520;2023-02-12T00:26:24;98832.69;;;-1.50;91.61
47761;BME280;33524;55.434;38.520;2023-02-12T00:28:55;98834.44;;;-1.50;91.63
47761;BME280;33524;55.434;38.520;2023-02-12T00:31:26;98836.19;;;-1.51;92.06
47761;BME280;33524;55.434;38.520;2023-02-12T00:33:56;98843.91;;;-1.51;92.25
47761;BME280;33524;55.434;38.520;2023-02-12T00:36:28;98838.59;;;-1.48;92.28
47761;BME280;33524;55.434;38.520;2023-02-12T00:38:57;98839.59;;;-1.50;92.34
47761;BME280;33524;55.434;38.520;2023-02-12T00:41:25;98836.09;;;-1.49;92.48
47761;BME280;33524;55.434;38.520;2023-02-12T00:43:54;98839.53;;;-1.49;92.49
47761;BME280;33524;55.434;38.520;2023-02-12T00:46:21;98834.37;;;-1.49;92.53
47761;BME280;33524;55.434;38.520;2023-02-12T00:48:50;98830.09;;;-1.50;92.49
47761;BME280;33524;55.434;38.520;2023-02-12T00:51:21;98835.25;;;-1.50;92.75
47761;BME280;33524;55.434;38.520;2023-02-12T00:53:50;98835.25;;;-1.50;92.96
47761;BME280;33524;55.434;38.520;2023-02-12T00:56:18;98837.00;;;-1.50;92.94
47761;BME280;33524;55.434;38.520;2023-02-12T00:58:47;98834.37;;;-1.49;92.77
47761;BME280;33524;55.434;38.520;2023-02-12T01:01:16;98835.25;;;-1.50;92.66
47761;BME280;33524;55.434;38.520;2023-02-12T01:03:45;98837.84;;;-1.50;93.16
47761;BME280;33524;55.434;38.520;2023-02-12T01:06:13;98842.16;;;-1.50;93.47
47761;BME280;33524;55.434;38.520;2023-02-12T01:08:41;98842.00;;;-1.47;93.12
47761;BME280;33524;55.434;38.520;2023-02-12T01:11:12;98841.87;;;-1.44;92.57
47761;BME280;33524;55.434;38.520;2023-02-12T01:13:41;98848.78;;;-1.45;92.69
47761;BME280;33524;55.434;38.520;2023-02-12T01:16:22;98842.25;;;-1.52;93.27
47761;BME280;33524;55.434;38.520;2023-02-12T01:18:51;98852.56;;;-1.52;93.11
47761;BME280;33524;55.434;38.520;2023-02-12T01:21:25;98854.22;;;-1.51;93.28
47761;BME280;33524;55.434;38.520;2023-02-12T01:23:54;98854.22;;;-1.51;93.38
47761;BME280;33524;55.434;38.520;2023-02-12T01:26:23;98855.00;;;-1.49;93.06
47761;BME280;33524;55.434;38.520;2023-02-12T01:28:54;98858.97;;;-1.07;88.93
47761;BME280;33524;55.434;38.520;2023-02-12T01:31:25;98857.28;;;-1.43;92.47
47761;BME280;33524;55.434;38.520;2023-02-12T01:33:56;98844.34;;;-1.60;92.98
47761;BME280;33524;55.434;38.520;2023-02-12T01:36:29;98851.59;;;-1.68;93.86
47761;BME280;33524;55.434;38.520;2023-02-12T01:38:57;98854.12;;;-1.67;94.14
47761;BME280;33524;55.434;38.520;2023-02-12T01:41:28;98853.88;;;-1.62;93.83
47761;BME280;33524;55.434;38.520;2023-02-12T01:44:26;98859.03;;;-1.62;94.30
47761;BME280;33524;55.434;38.520;2023-02-12T01:46:58;98870.41;;;-1.66;94.62
47761;BME280;33524;55.434;38.520;2023-02-12T01:49:33;98865.13;;;-1.63;95.00
47761;BME280;33524;55.434;38.520;2023-02-12T01:52:13;98875.72;;;-1.69;95.17
47761;BME280;33524;55.434;38.520;2023-02-12T01:54:42;98884.09;;;-2.02;96.56
47761;BME280;33524;55.434;38.520;2023-02-12T01:57:15;98881.03;;;-2.10;97.82
47761;BME280;33524;55.434;38.520;2023-02-12T01:59:48;98887.00;;;-2.10;98.69
47761;BME280;33524;55.434;38.520;2023-02-12T02:02:19;98897.84;;;-2.22;100.00
47761;BME280;33524;55.434;38.520;2023-02-12T02:04:55;98901.53;;;-2.28;100.00
47761;BME280;33524;55.434;38.520;2023-02-12T02:07:24;98905.91;;;-2.30;100.00
47761;BME280;33524;55.434;38.520;2023-02-12T02:09:53;98905.34;;;-2.36;100.00
47761;BME280;33524;55.434;38.520;2023-02-12T02:12:22;98918.53;;;-2.44;100.00
47761;BME280;33524;55.434;38.520;2023-02-12T02:15:10;98917.78;;;-2.46;100.00
47761;BME280;33524;55.434;38.520;2023-02-12T02:23:44;98950.09;;;-2.59;100.00
47761;BME280;33524;55.434;38.520;2023-02-12T02:29:44;98965.00;;;-2.68;100.00
47761;BME280;33524;55.434;38.520;2023-02-12T02:32:24;98946.94;;;-2.87;100.00
47761;BME280;33524;55.434;38.520;2023-02-12T02:38:05;98957.00;;;-3.02;100.00
47761;BME280;33524;55.434;38.520;2023-02-12T02:40:50;98993.59;;;-2.96;100.00
47761;BME280;33524;55.434;38.520;2023-02-12T02:43:41;98973.16;;;-3.21;100.00
47761;BME280;33524;55.434;38.520;2023-02-12T02:46:15;99000.19;;;-3.11;100.00
47761;BME280;33524;55.434;38.520;2023-02-12T02:48:51;99006.47;;;-3.18;100.00
47761;BME280;33524;55.434;38.520;2023-02-12T02:51:24;99021.12;;;-3.20;100.00
47761;BME280;33524;55.434;38.520;2023-02-12T02:54:08;99010.19;;;-3.27;100.00
47761;BME280;33524;55.434;38.520;2023-02-12T02:56:41;99032.94;;;-3.38;100.00
47761;BME280;33524;55.434;38.520;2023-02-12T02:59:19;99031.50;;;-3.45;100.00
47761;BME280;33524;55.434;38.520;2023-02-12T03:02:00;99034.44;;;-3.56;100.00
47761;BME280;33524;55.434;38.520;2023-02-12T03:04:57;99055.50;;;-3.46;100.00
47761;BME280;33524;55.434;38.520;2023-02-12T03:07:37;99067.06;;;-3.58;100.00
47761;BME280;33524;55.434;38.520;2023-02-12T03:10:19;99075.00;;;-3.64;100.00
47761;BME280;33524;55.434;38.520;2023-02-12T03:13:01;99077.69;;;-3.67;100.00
47761;BME280;33524;55.434;38.520;2023-02-12T03:15:38;99085.38;;;-3.67;100.00
47761;BME280;33524;55.434;38.520;2023-02-12T03:18:11;99099.91;;;-3.66;100.00
47761;BME280;33524;55.434;38.520;2023-02-12T03:20:49;99102.84;;;-3.77;100.00
47761;BME280;33524;55.434;38.520;2023-02-12T03:23:36;99087.84;;;-3.89;100.00
47761;BME280;33524;55.434;38.520;2023-02-12T03:26:21;99105.84;;;-3.89;100.00
47761;BME280;33524;55.434;38.520;2023-02-12T03:28:52;99130.13;;;-3.98;100.00
47761;BME280;33524;55.434;38.520;2023-02-12T03:31:51;99139.34;;;-3.92;100.00
47761;BME280;33524;55.434;38.520;2023-02-12T03:34:27;99138.59;;;-3.96;100.00
47761;BME280;33524;55.434;38.520;2023-02-12T03:40:16;99159.28;;;-3.99;100.00
47761;BME280;33524;55.434;38.520;2023-02-12T03:43:18;99164.50;;;-4.02;100.00
47761;BME280;33524;55.434;38.520;2023-02-12T03:46:07;99168.03;;;-4.06;100.00
47761;BME280;33524;55.434;38.520;2023-02-12T03:48:50;99174.88;;;-4.05;100.00
47761;BME280;33524;55.434;38.520;2023-02-12T03:51:27;99187.94;;;-4.13;100.00
47761;BME280;33524;55.434;38.520;2023-02-12T03:53:57;99196.59;;;-4.15;100.00
47761;BME280;33524;55.434;38.520;2023-02-12T03:59:25;99213.63;;;-4.13;100.00
47761;BME280;33524;55.434;38.520;2023-02-12T04:01:54;99219.91;;;-4.21;100.00
47761;BME280;33524;55.434;38.520;2023-02-12T04:04:24;99224.25;;;-4.23;100.00
47761;BME280;33524;55.434;38.520;2023-02-12T04:06:53;99220.97;;;-4.29;100.00
47761;BME280;33524;55.434;38.520;2023-02-12T04:09:23;99231.44;;;-4.36;100.00
47761;BME280;33524;55.434;38.520;2023-02-12T04:23:47;99259.00;;;-4.41;100.00
47761;BME280;33524;55.434;38.520;2023-02-12T04:32:18;99270.19;;;-4.44;100.00
47761;BME280;33524;55.434;38.520;2023-02-12T04:37:35;99264.94;;;-4.69;100.00
47761;BME280;33524;55.434;38.520;2023-02-12T04:40:08;99291.87;;;-4.54;100.00
47761;BME280;33524;55.434;38.520;2023-02-12T04:42:46;99308.06;;;-4.52;100.00
47761;BME280;33524;55.434;38.520;2023-02-12T04:45:21;99315.69;;;-4.51;100.00
47761;BME280;33524;55.434;38.520;2023-02-12T04:47:50;99299.75;;;-4.60;100.00
47761;BME280;33524;55.434;38.520;2023-02-12T04:50:18;99326.91;;;-4.53;100.00
47761;BME280;33524;55.434;38.520;2023-02-12T04:52:47;99336.31;;;-4.52;100.00
47761;BME280;33524;55.434;38.520;2023-02-12T04:55:15;99337.78;;;-4.45;100.00
47761;BME280;33524;55.434;38.520;2023-02-12T04:57:43;99334.62;;;-4.55;100.00
47761;BME280;33524;55.434;38.520;2023-02-12T05:00:13;99349.06;;;-4.51;100.00
47761;BME280;33524;55.434;38.520;2023-02-12T05:02:44;99355.16;;;-4.55;100.00
47761;BME280;33524;55.434;38.520;2023-02-12T05:05:15;99372.94;;;-4.47;100.00
47761;BME280;33524;55.434;38.520;2023-02-12T05:07:43;99373.81;;;-4.48;100.00
47761;BME280;33524;55.434;38.520;2023-02-12T05:10:11;99373.94;;;-4.53;100.00
47761;BME280;33524;55.434;38.520;2023-02-12T05:12:39;99374.72;;;-4.51;100.00
47761;BME280;33524;55.434;38.520;2023-02-12T05:15:08;99388.41;;;-4.50;100.00
47761;BME280;33524;55.434;38.520;2023-02-12T05:17:36;99387.56;;;-4.51;99.99
47761;BME280;33524;55.434;38.520;2023-02-12T05:20:09;99400.34;;;-4.49;99.85
47761;BME280;33524;55.434;38.520;2023-02-12T05:22:40;99415.69;;;-4.46;99.88
47761;BME280;33524;55.434;38.520;2023-02-12T05:25:08;99419.94;;;-4.47;99.80
47761;BME280;33524;55.434;38.520;2023-02-12T05:27:38;99424.09;;;-4.41;99.95
47761;BME280;33524;55.434;38.520;2023-02-12T05:30:06;99442.09;;;-4.42;98.11
47761;BME280;33524;55.434;38.520;2023-02-12T05:32:36;99448.78;;;-4.37;98.26
47761;BME280;33524;55.434;38.520;2023-02-12T05:35:04;99448.00;;;-4.39;97.38
47761;BME280;33524;55.434;38.520;2023-02-12T05:37:35;99455.50;;;-4.31;97.82
47761;BME280;33524;55.434;38.520;2023-02-12T05:40:04;99467.69;;;-4.39;97.00
47761;BME280;33524;55.434;38.520;2023-02-12T05:42:36;99458.03;;;-4.30;97.30
47761;BME280;33524;55.434;38.520;2023-02-12T05:45:05;99474.47;;;-4.37;96.71
47761;BME280;33524;55.434;38.520;2023-02-12T05:47:33;99453.44;;;-4.51;97.04
47761;BME280;33524;55.434;38.520;2023-02-12T05:50:00;99493.44;;;-4.42;97.22
47761;BME280;33524;55.434;38.520;2023-02-12T05:52:29;99501.09;;;-4.41;97.49
47761;BME280;33524;55.434;38.520;2023-02-12T05:55:00;99504.47;;;-4.39;97.99
47761;BME280;33524;55.434;38.520;2023-02-12T05:57:29;99495.94;;;-4.39;100.00
47761;BME280;33524;55.434;38.520;2023-02-12T05:59:56;99505.41;;;-4.43;100.00
47761;BME280;33524;55.434;38.520;2023-02-12T06:02:24;99501.75;;;-4.33;100.00
47761;BME280;33524;55.434;38.520;2023-02-12T06:04:53;99519.00;;;-4.38;100.00
47761;BME280;33524;55.434;38.520;2023-02-12T06:07:21;99518.38;;;-4.48;99.57
47761;BME280;33524;55.434;38.520;2023-02-12T06:09:49;99540.25;;;-4.33;99.91
47761;BME280;33524;55.434;38.520;2023-02-12T06:12:17;99533.66;;;-4.43;98.87
47761;BME280;33524;55.434;38.520;2023-02-12T06:14:48;99541.34;;;-4.43;98.62
47761;BME280;33524;55.434;38.520;2023-02-12T06:17:16;99554.94;;;-4.38;98.22
47761;BME280;33524;55.434;38.520;2023-02-12T06:19:44;99556.19;;;-4.54;97.46
47761;BME280;33524;55.434;38.520;2023-02-12T06:22:12;99547.75;;;-4.59;96.44
47761;BME280;33524;55.434;38.520;2023-02-12T06:24:40;99558.78;;;-4.56;96.57
47761;BME280;33524;55.434;38.520;2023-02-12T06:27:08;99561.25;;;-4.53;96.50
47761;BME280;33524;55.434;38.520;2023-02-12T06:29:36;99576.66;;;-4.53;96.04
47761;BME280;33524;55.434;38.520;2023-02-12T06:32:04;99574.72;;;-4.43;95.95
47761;BME280;33524;55.434;38.520;2023-02-12T06:34:35;99596.16;;;-4.44;95.83
47761;BME280;33524;55.434;38.520;2023-02-12T06:37:02;99598.06;;;-4.52;94.58
47761;BME280;33524;55.434;38.520;2023-02-12T06:39:30;99601.50;;;-4.53;94.76
47761;BME280;33524;55.434;38.520;2023-02-12T06:41:58;99615.16;;;-4.53;94.81
47761;BME280;33524;55.434;38.520;2023-02-12T06:44:26;99618.63;;;-4.55;94.96
47761;BME280;33524;55.434;38.520;2023-02-12T06:46:54;99609.28;;;-4.56;95.08
47761;BME280;33524;55.434;38.520;2023-02-12T06:49:22;99617.09;;;-4.61;95.29
47761;BME280;33524;55.434;38.520;2023-02-12T06:51:50;99627.50;;;-4.67;95.60
47761;BME280;33524;55.434;38.520;2023-02-12T06:54:18;99630.94;;;-4.70;95.66
47761;BME280;33524;55.434;38.520;2023-02-12T06:56:46;99626.59;;;-4.66;95.29
47761;BME280;33524;55.434;38.520;2023-02-12T06:59:15;99643.87;;;-4.74;95.43
47761;BME280;33524;55.434;38.520;2023-02-12T07:01:43;99641.03;;;-4.62;95.70
47761;BME280;33524;55.434;38.520;2023-02-12T07:04:12;99641.25;;;-4.71;95.85
47761;BME280;33524;55.434;38.520;2023-02-12T07:06:40;99653.28;;;-4.73;96.10
47761;BME280;33524;55.434;38.520;2023-02-12T07:09:08;99633.75;;;-4.80;96.03
47761;BME280;33524;55.434;38.520;2023-02-12T07:11:37;99663.53;;;-4.73;95.34
47761;BME280;33524;55.434;38.520;2023-02-12T07:14:05;99670.78;;;-4.53;95.89
47761;BME280;33524;55.434;38.520;2023-02-12T07:16:33;99674.00;;;-4.45;95.49
47761;BME280;33524;55.434;38.520;2023-02-12T07:19:02;99668.63;;;-4.34;95.18
47761;BME280;33524;55.434;38.520;2023-02-12T07:21:30;99691.78;;;-4.36;94.56
47761;BME280;33524;55.434;38.520;2023-02-12T07:23:58;99689.09;;;-4.30;93.69
47761;BME280;33524;55.434;38.520;2023-02-12T07:26:26;99667.16;;;-4.44;93.82
47761;BME280;33524;55.434;38.520;2023-02-12T07:28:56;99697.16;;;-4.09;93.66
47761;BME280;33524;55.434;38.520;2023-02-12T07:31:24;99712.06;;;-4.23;92.94
47761;BME280;33524;55.434;38.520;2023-02-12T07:33:55;99702.22;;;-4.06;94.09
47761;BME280;33524;55.434;38.520;2023-02-12T07:36:26;99700.53;;;-4.07;93.37
47761;BME280;33524;55.434;38.520;2023-02-12T07:38:56;99708.81;;;-4.32;92.81
47761;BME280;33524;55.434;38.520;2023-02-12T07:41:29;99711.56;;;-4.41;91.77
47761;BME280;33524;55.434;38.520;2023-02-12T07:44:03;99730.62;;;-4.51;91.77
47761;BME280;33524;55.434;38.520;2023-02-12T07:46:36;99737.25;;;-4.42;92.71
47761;BME280;33524;55.434;38.520;2023-02-12T07:49:06;99746.00;;;-4.51;91.80
47761;BME280;33524;55.434;38.520;2023-02-12T07:51:37;99751.94;;;-4.48;91.66
47761;BME280;33524;55.434;38.520;2023-02-12T07:54:05;99754.47;;;-4.46;91.61
47761;BME280;33524;55.434;38.520;2023-02-12T07:56:35;99764.63;;;-4.40;91.34
47761;BME280;33524;55.434;38.520;2023-02-12T07:59:12;99767.06;;;-4.34;90.77
47761;BME280;33524;55.434;38.520;2023-02-12T08:01:46;99769.66;;;-4.35;89.78
47761;BME280;33524;55.434;38.520;2023-02-12T08:04:17;99769.34;;;-4.21;89.66
47761;BME280;33524;55.434;38.520;2023-02-12T08:06:47;99774.69;;;-4.32;89.47
47761;BME280;33524;55.434;38.520;2023-02-12T08:09:23;99785.06;;;-4.37;88.42
47761;BME280;33524;55.434;38.520;2023-02-12T08:11:51;99784.34;;;-4.43;89.54
47761;BME280;33524;55.434;38.520;2023-02-12T08:14:20;99771.94;;;-4.23;89.59
47761;BME280;33524;55.434;38.520;2023-02-12T08:16:49;99791.16;;;-4.42;89.01
47761;BME280;33524;55.434;38.520;2023-02-12T08:19:18;99809.47;;;-4.58;88.87
47761;BME280;33524;55.434;38.520;2023-02-12T08:21:54;99810.00;;;-4.42;89.47
47761;BME280;33524;55.434;38.520;2023-02-12T08:24:23;99820.47;;;-4.53;88.62
47761;BME280;33524;55.434;38.520;2023-02-12T08:26:51;99824.59;;;-4.44;89.33
47761;BME280;33524;55.434;38.520;2023-02-12T08:29:25;99819.94;;;-4.27;89.28
47761;BME280;33524;55.434;38.520;2023-02-12T08:31:59;99836.53;;;-4.43;88.67
47761;BME280;33524;55.434;38.520;2023-02-12T08:34:30;99826.28;;;-4.43;88.19
47761;BME280;33524;55.434;38.520;2023-02-12T08:36:59;99849.25;;;-4.37;88.48
47761;BME280;33524;55.434;38.520;2023-02-12T08:39:44;99845.06;;;-4.41;87.67
47761;BME280;33524;55.434;38.520;2023-02-12T08:42:12;99856.34;;;-4.50;88.29
47761;BME280;33524;55.434;38.520;2023-02-12T08:44:41;99852.06;;;-4.49;87.07
47761;BME280;33524;55.434;38.520;2023-02-12T08:47:09;99850.78;;;-4.28;87.38
47761;BME280;33524;55.434;38.520;2023-02-12T08:49:37;99869.75;;;-4.35;86.05
47761;BME280;33524;55.434;38.520;2023-02-12T08:52:05;99864.19;;;-4.14;85.83
47761;BME280;33524;55.434;38.520;2023-02-12T08:54:33;99876.31;;;-4.20;85.38
47761;BME280;33524;55.434;38.520;2023-02-12T08:57:01;99884.91;;;-4.21;85.82
47761;BME280;33524;55.434;38.520;2023-02-12T08:59:30;99886.84;;;-4.34;84.90
47761;BME280;33524;55.434;38.520;2023-02-12T09:01:58;99893.66;;;-4.32;84.96
47761;BME280;33524;55.434;38.520;2023-02-12T09:04:28;99896.06;;;-4.24;85.29
47761;BME280;33524;55.434;38.520;2023-02-12T09:06:56;99901.97;;;-4.20;84.71
47761;BME280;33524;55.434;38.520;2023-02-12T09:09:24;99917.03;;;-4.03;85.05
47761;BME280;33524;55.434;38.520;2023-02-12T09:11:52;99909.75;;;-4.23;84.22
47761;BME280;33524;55.434;38.520;2023-02-12T09:14:20;99918.31;;;-4.24;84.29
47761;BME280;33524;55.434;38.520;2023-02-12T09:16:52;99919.28;;;-4.30;84.45
47761;BME280;33524;55.434;38.520;2023-02-12T09:19:21;99911.19;;;-4.10;85.18
47761;BME280;33524;55.434;38.520;2023-02-12T09:21:53;99924.00;;;-4.07;83.83
47761;BME280;33524;55.434;38.520;2023-02-12T09:24:24;99922.66;;;-4.28;83.66
47761;BME280;33524;55.434;38.520;2023-02-12T09:26:55;99938.25;;;-4.37;83.33
47761;BME280;33524;55.434;38.520;2023-02-12T09:29:23;99951.34;;;-4.53;83.62
47761;BME280;33524;55.434;38.520;2023-02-12T09:31:51;99942.72;;;-4.47;83.29
47761;BME280;33524;55.434;38.520;2023-02-12T09:34:19;99946.94;;;-4.44;82.91
47761;BME280;33524;55.434;38.520;2023-02-12T09:36:47;99953.53;;;-4.30;83.31
47761;BME280;33524;55.434;38.520;2023-02-12T09:39:15;99920.19;;;-4.33;83.10
47761;BME280;33524;55.434;38.520;2023-02-12T09:41:54;99942.69;;;-4.00;81.75
47761;BME280;33524;55.434;38.520;2023-02-12T09:44:46;99954.25;;;-3.81;81.55
47761;BME280;33524;55.434;38.520;2023-02-12T09:47:26;99950.66;;;-4.14;80.91
47761;BME280;33524;55.434;38.520;2023-02-12T09:50:29;99955.09;;;-3.79;81.43
47761;BME280;33524;55.434;38.520;2023-02-12T09:52:54;99966.62;;;-4.00;80.71
47761;BME280;33524;55.434;38.520;2023-02-12T09:55:29;99965.75;;;-3.57;80.04
47761;BME280;33524;55.434;38.520;2023-02-12T09:57:59;99981.13;;;-3.96;79.72
47761;BME280;33524;55.434;38.520;2023-02-12T10:00:30;99986.69;;;-4.19;79.85
47761;BME280;33524;55.434;38.520;2023-02-12T10:03:11;99991.97;;;-4.27;80.06
47761;BME280;33524;55.434;38.520;2023-02-12T10:05:50;99998.50;;;-4.10;79.57
47761;BME280;33524;55.434;38.520;2023-02-12T10:08:43;99988.97;;;-4.03;79.71
47761;BME280;33524;55.434;38.520;2023-02-12T10:28:00;100035.75;;;-4.34;77.68
47761;BME280;33524;55.434;38.520;2023-02-12T10:30:57;100047.50;;;-4.21;78.27
47761;BME280;33524;55.434;38.520;2023-02-12T10:33:47;100043.44;;;-4.34;78.50
47761;BME280;33524;55.434;38.520;2023-02-12T10:39:05;100050.19;;;-4.27;77.94
47761;BME280;33524;55.434;38.520;2023-02-12T10:41:46;100060.69;;;-4.41;77.79
47761;BME280;33524;55.434;38.520;2023-02-12T10:44:16;100051.53;;;-4.06;78.15
47761;BME280;33524;55.434;38.520;2023-02-12T10:46:44;100056.41;;;-3.92;77.53
47761;BME280;33524;55.434;38.520;2023-02-12T10:49:15;100062.53;;;-3.99;76.91
47761;BME280;33524;55.434;38.520;2023-02-12T10:54:45;100076.25;;;-3.99;76.86
47761;BME280;33524;55.434;38.520;2023-02-12T10:57:25;100088.84;;;-4.36;76.93
47761;BME280;33524;55.434;38.520;2023-02-12T10:59:55;100095.91;;;-4.49;77.01
47761;BME280;33524;55.434;38.520;2023-02-12T11:02:30;100095.63;;;-4.32;76.62
47761;BME280;33524;55.434;38.520;2023-02-12T11:04:59;100094.84;;;-4.37;77.22
47761;BME280;33524;55.434;38.520;2023-02-12T11:07:48;100103.66;;;-4.52;77.10
47761;BME280;33524;55.434;38.520;2023-02-12T11:10:21;100103.94;;;-4.71;77.20
47761;BME280;33524;55.434;38.520;2023-02-12T11:12:54;100113.84;;;-4.49;77.01
47761;BME280;33524;55.434;38.520;2023-02-12T11:15:23;100108.66;;;-4.44;76.27
47761;BME280;33524;55.434;38.520;2023-02-12T11:18:03;100112.75;;;-4.34;76.57
47761;BME280;33524;55.434;38.520;2023-02-12T11:21:11;100120.44;;;-4.31;75.71
47761;BME280;33524;55.434;38.520;2023-02-12T11:23:42;100132.44;;;-4.32;75.40
47761;BME280;33524;55.434;38.520;2023-02-12T11:29:19;100131.87;;;-3.98;74.82
47761;BME280;33524;55.434;38.520;2023-02-12T11:32:03;100146.53;;;-4.03;73.27
47761;BME280;33524;55.434;38.520;2023-02-12T11:34:31;100140.78;;;-4.19;73.62
47761;BME280;33524;55.434;38.520;2023-02-12T11:37:00;100151.78;;;-4.12;73.50
47761;BME280;33524;55.434;38.520;2023-02-12T11:39:34;100155.19;;;-4.10;72.98
47761;BME280;33524;55.434;38.520;2023-02-12T11:42:24;100156.81;;;-4.03;72.77
47761;BME280;33524;55.434;38.520;2023-02-12T11:44:58;100175.06;;;-4.21;72.17
47761;BME280;33524;55.434;38.520;2023-02-12T11:47:29;100179.66;;;-4.42;72.01
47761;BME280;33524;55.434;38.520;2023-02-12T11:50:17;100176.28;;;-4.47;72.89
47761;BME280;33524;55.434;38.520;2023-02-12T11:52:53;100182.63;;;-4.71;72.62
47761;BME280;33524;55.434;38.520;2023-02-12T11:55:31;100194.94;;;-4.34;73.42
47761;BME280;33524;55.434;38.520;2023-02-12T11:58:13;100192.50;;;-4.42;72.28
47761;BME280;33524;55.434;38.520;2023-02-12T12:00:50;100184.25;;;-4.08;74.52
47761;BME280;33524;55.434;38.520;2023-02-12T12:06:21;100206.34;;;-4.54;71.13
47761;BME280;33524;55.434;38.520;2023-02-12T12:09:02;100215.72;;;-4.53;72.38
47761;BME280;33524;55.434;38.520;2023-02-12T12:11:46;100221.72;;;-4.52;71.63
47761;BME280;33524;55.434;38.520;2023-02-12T12:14:28;100227.53;;;-4.39;70.78
47761;BME280;33524;55.434;38.520;2023-02-12T12:17:05;100225.03;;;-4.44;71.39
47761;BME280;33524;55.434;38.520;2023-02-12T12:20:04;100234.34;;;-4.38;72.15
47761;BME280;33524;55.434;38.520;2023-02-12T12:25:15;100249.91;;;-4.51;72.52
47761;BME280;33524;55.434;38.520;2023-02-12T12:43:00;100273.69;;;-4.36;70.92
47761;BME280;33524;55.434;38.520;2023-02-12T12:51:33;100290.41;;;-4.08;68.23
47761;BME280;33524;55.434;38.520;2023-02-12T12:58:08;100287.66;;;-3.94;69.38
47761;BME280;33524;55.434;38.520;2023-02-12T13:00:36;100301.16;;;-3.81;67.07
47761;BME280;33524;55.434;38.520;2023-02-12T13:06:04;100304.81;;;-3.40;65.80
47761;BME280;33524;55.434;38.520;2023-02-12T13:15:20;100320.66;;;-3.15;65.03
47761;BME280;33524;55.434;38.520;2023-02-12T13:21:25;100328.69;;;-3.33;65.23
47761;BME280;33524;55.434;38.520;2023-02-12T13:24:02;100336.28;;;-3.24;65.39
47761;BME280;33524;55.434;38.520;2023-02-12T13:26:38;100330.56;;;-3.99;66.28
47761;BME280;33524;55.434;38.520;2023-02-12T13:29:34;100345.44;;;-3.62;66.74
47761;BME280;33524;55.434;38.520;2023-02-12T13:32:14;100356.19;;;-3.96;67.03
47761;BME280;33524;55.434;38.520;2023-02-12T13:34:44;100362.41;;;-4.12;67.74
47761;BME280;33524;55.434;38.520;2023-02-12T13:37:18;100362.13;;;-4.60;69.56
47761;BME280;33524;55.434;38.520;2023-02-12T13:39:48;100354.75;;;-4.94;70.29
47761;BME280;33524;55.434;38.520;2023-02-12T13:45:29;100380.47;;;-4.99;70.58
47761;BME280;33524;55.434;38.520;2023-02-12T13:51:20;100397.16;;;-5.57;73.02
47761;BME280;33524;55.434;38.520;2023-02-12T13:56:49;100405.09;;;-5.98;74.57
47761;BME280;33524;55.434;38.520;2023-02-12T14:02:04;100408.59;;;-6.22;75.98
47761;BME280;33524;55.434;38.520;2023-02-12T14:04:35;100408.62;;;-6.25;76.11
47761;BME280;33524;55.434;38.520;2023-02-12T14:07:15;100411.22;;;-6.39;76.71
47761;BME280;33524;55.434;38.520;2023-02-12T14:20:27;100441.13;;;-6.71;78.98
47761;BME280;33524;55.434;38.520;2023-02-12T14:23:25;100446.25;;;-6.72;78.75
47761;BME280;33524;55.434;38.520;2023-02-12T14:25:59;100454.78;;;-6.81;79.25
47761;BME280;33524;55.434;38.520;2023-02-12T14:34:35;100470.13;;;-6.81;79.11
47761;BME280;33524;55.434;38.520;2023-02-12T14:36:43;100449.69;;;-6.90;79.22
47761;BME280;33524;55.434;38.520;2023-02-12T14:41:54;100470.13;;;-6.93;79.68
47761;BME280;33524;55.434;38.520;2023-02-12T14:46:56;100481.19;;;-7.16;80.84
47761;BME280;33524;55.434;38.520;2023-02-12T14:49:47;100482.91;;;-7.12;80.74
47761;BME280;33524;55.434;38.520;2023-02-12T14:52:19;100493.12;;;-7.21;81.32
47761;BME280;33524;55.434;38.520;2023-02-12T14:54:53;100498.22;;;-7.18;81.39
47761;BME280;33524;55.434;38.520;2023-02-12T14:57:32;100498.22;;;-7.22;81.59
47761;BME280;33524;55.434;38.520;2023-02-12T15:03:06;100505.00;;;-7.32;82.06
47761;BME280;33524;55.434;38.520;2023-02-12T15:19:43;100542.34;;;-7.71;84.80
47761;BME280;33524;55.434;38.520;2023-02-12T15:22:21;100544.84;;;-7.89;85.68
47761;BME280;33524;55.434;38.520;2023-02-12T15:24:50;100549.06;;;-7.85;86.07
47761;BME280;33524;55.434;38.520;2023-02-12T15:27:19;100549.13;;;-7.76;85.77
47761;BME280;33524;55.434;38.520;2023-02-12T15:29:50;100560.22;;;-7.71;86.16
47761;BME280;33524;55.434;38.520;2023-02-12T15:32:24;100554.28;;;-7.70;85.33
47761;BME280;33524;55.434;38.520;2023-02-12T15:34:54;100564.47;;;-7.73;85.50
47761;BME280;33524;55.434;38.520;2023-02-12T15:37:28;100552.50;;;-7.85;85.78
47761;BME280;33524;55.434;38.520;2023-02-12T15:39:59;100567.03;;;-7.75;85.37
47761;BME280;33524;55.434;38.520;2023-02-12T15:42:38;100567.00;;;-7.73;85.43
47761;BME280;33524;55.434;38.520;2023-02-12T15:47:37;100584.00;;;-7.83;85.53
47761;BME280;33524;55.434;38.520;2023-02-12T15:50:05;100581.50;;;-7.77;85.21
47761;BME280;33524;55.434;38.520;2023-02-12T15:52:36;100591.66;;;-7.84;85.39
47761;BME280;33524;55.434;38.520;2023-02-12T15:55:14;100591.62;;;-7.91;85.70
47761;BME280;33524;55.434;38.520;2023-02-12T15:57:48;100598.41;;;-7.96;85.93